createdAt,value
2019-03-29T00:00:41.334Z,65.00
2019-03-29T00:03:11.166Z,65.10
2019-03-29T00:05:41.123Z,65.10
2019-03-29T00:08:11.045Z,65.00
2019-03-29T00:10:40.808Z,65.10
2019-03-29T00:13:10.575Z,65.00
2019-03-29T00:15:40.540Z,65.00
2019-03-29T00:18:11.371Z,65.10
2019-03-29T00:20:41.175Z,65.00
2019-03-29T00:23:11.015Z,65.00
2019-03-29T00:25:40.930Z,65.00
2019-03-29T00:28:11.094Z,65.00
2019-03-29T00:30:41.525Z,64.90
2019-03-29T00:33:11.647Z,65.00
2019-03-29T00:35:41.532Z,64.90
2019-03-29T00:38:11.374Z,64.90
2019-03-29T00:40:41.277Z,65.00
2019-03-29T00:43:11.166Z,64.90
2019-03-29T00:45:41.096Z,65.00
2019-03-29T00:48:11.618Z,64.70
2019-03-29T00:50:41.568Z,64.90
2019-03-29T00:53:22.733Z,64.90
2019-03-29T00:55:52.687Z,64.90
2019-03-29T00:58:22.993Z,65.00
2019-03-29T01:00:59.911Z,64.90
2019-03-29T01:03:34.607Z,64.90
2019-03-29T01:06:04.588Z,64.90
2019-03-29T01:08:35.624Z,64.70
2019-03-29T01:11:05.514Z,64.90
2019-03-29T01:13:35.354Z,64.70
2019-03-29T01:16:10.723Z,64.90
2019-03-29T01:18:40.628Z,64.90
2019-03-29T01:21:10.531Z,64.90
2019-03-29T01:23:40.443Z,64.90
2019-03-29T01:26:12.017Z,64.70
2019-03-29T01:28:41.911Z,64.90
2019-03-29T01:31:11.730Z,64.70
2019-03-29T01:33:57.691Z,64.70
2019-03-29T01:36:28.062Z,64.70
2019-03-29T01:38:58.154Z,64.70
2019-03-29T01:41:28.724Z,64.70
2019-03-29T01:44:04.873Z,64.70
2019-03-29T01:46:34.831Z,64.70
2019-03-29T01:49:05.837Z,64.70
2019-03-29T01:51:36.145Z,64.70
2019-03-29T01:54:16.765Z,64.70
2019-03-29T01:56:47.695Z,64.70
2019-03-29T01:59:28.527Z,64.70
2019-03-29T02:01:58.497Z,64.70
2019-03-29T02:04:28.415Z,64.70
2019-03-29T02:06:58.350Z,64.70
2019-03-29T02:09:28.339Z,64.70
2019-03-29T02:11:58.255Z,64.70
2019-03-29T02:14:28.298Z,64.70
2019-03-29T02:16:58.594Z,64.70
2019-03-29T02:19:28.483Z,64.70
2019-03-29T02:21:58.397Z,64.70
2019-03-29T02:24:28.487Z,64.70
2019-03-29T02:26:58.758Z,64.70
2019-03-29T02:29:32.568Z,64.70
2019-03-29T02:32:02.627Z,64.70
2019-03-29T02:34:32.565Z,64.70
2019-03-29T02:37:03.385Z,64.70
2019-03-29T02:39:33.364Z,64.70
2019-03-29T02:42:03.286Z,64.50
2019-03-29T02:44:34.756Z,64.70
2019-03-29T02:47:04.576Z,64.50
2019-03-29T02:49:35.061Z,64.70
2019-03-29T02:52:04.989Z,64.50
2019-03-29T02:54:46.778Z,64.50
2019-03-29T02:57:16.662Z,64.50
2019-03-29T02:59:46.614Z,64.50
2019-03-29T03:02:16.561Z,64.50
2019-03-29T03:04:46.499Z,64.60
2019-03-29T03:07:22.704Z,64.70
2019-03-29T03:09:52.612Z,64.50
2019-03-29T03:12:22.396Z,64.50
2019-03-29T03:14:52.179Z,64.50
2019-03-29T03:17:22.107Z,64.60
2019-03-29T03:19:52.171Z,64.50
2019-03-29T03:22:22.278Z,64.60
2019-03-29T03:24:52.095Z,64.50
2019-03-29T03:27:22.030Z,64.50
2019-03-29T03:29:53.847Z,64.50
2019-03-29T03:32:28.780Z,64.50
2019-03-29T03:34:58.784Z,64.50
2019-03-29T03:37:28.628Z,64.60
2019-03-29T03:39:58.529Z,64.60
2019-03-29T03:42:28.453Z,64.60
2019-03-29T03:44:58.462Z,64.50
2019-03-29T03:47:28.411Z,64.50
2019-03-29T03:50:01.020Z,64.60
2019-03-29T03:52:29.999Z,64.50
2019-03-29T03:55:02.316Z,64.50
2019-03-29T03:57:32.583Z,64.60
2019-03-29T04:00:02.458Z,64.50
2019-03-29T04:02:32.286Z,64.50
2019-03-29T04:05:02.153Z,64.40
2019-03-29T04:07:32.032Z,64.50
2019-03-29T04:10:05.130Z,64.40
2019-03-29T04:12:34.942Z,64.50
2019-03-29T04:15:04.950Z,64.50
2019-03-29T04:17:34.851Z,64.40
2019-03-29T04:20:04.916Z,64.50
2019-03-29T04:22:40.930Z,64.50
2019-03-29T04:25:10.853Z,64.40
2019-03-29T04:27:40.864Z,64.30
2019-03-29T04:30:10.932Z,64.30
2019-03-29T04:32:46.898Z,64.40
2019-03-29T04:35:16.739Z,64.30
2019-03-29T04:37:46.571Z,64.30
2019-03-29T04:40:16.546Z,64.40
2019-03-29T04:42:46.533Z,64.30
2019-03-29T04:45:16.262Z,64.30
2019-03-29T04:47:46.156Z,64.30
2019-03-29T04:50:16.043Z,64.20
2019-03-29T04:52:45.881Z,64.20
2019-03-29T04:55:16.686Z,64.20
2019-03-29T04:57:47.592Z,64.20
2019-03-29T05:00:17.379Z,64.20
2019-03-29T05:02:47.170Z,64.30
2019-03-29T05:05:17.118Z,64.20
2019-03-29T05:07:47.100Z,64.30
2019-03-29T05:10:21.594Z,64.20
2019-03-29T05:12:48.778Z,64.20
2019-03-29T05:15:18.630Z,64.20
2019-03-29T05:17:48.617Z,64.10
2019-03-29T05:20:22.861Z,64.20
2019-03-29T05:22:52.798Z,64.20
2019-03-29T05:25:22.648Z,64.20
2019-03-29T05:27:52.514Z,64.10
2019-03-29T05:30:22.453Z,64.10
2019-03-29T05:32:52.398Z,64.10
2019-03-29T05:35:22.926Z,64.00
2019-03-29T05:37:58.858Z,64.10
2019-03-29T05:41:33.333Z,64.10
2019-03-29T05:43:00.485Z,64.10
2019-03-29T05:45:30.286Z,64.20
2019-03-29T05:48:00.196Z,64.10
2019-03-29T05:50:30.157Z,64.00
2019-03-29T05:53:00.095Z,64.10
2019-03-29T05:55:32.934Z,64.00
2019-03-29T05:58:20.307Z,64.10
2019-03-29T06:00:50.345Z,64.10
2019-03-29T06:03:20.186Z,64.00
2019-03-29T06:05:50.768Z,64.00
2019-03-29T06:08:20.592Z,63.90
2019-03-29T06:10:52.788Z,64.00
2019-03-29T06:13:22.807Z,64.00
2019-03-29T06:15:52.552Z,63.90
2019-03-29T06:18:22.410Z,63.90
2019-03-29T06:20:52.603Z,63.90
2019-03-29T06:23:22.647Z,63.90
2019-03-29T06:25:52.410Z,63.90
2019-03-29T06:28:22.471Z,63.90
2019-03-29T06:30:54.239Z,63.90
2019-03-29T06:33:24.115Z,63.90
2019-03-29T06:35:53.939Z,64.00
2019-03-29T06:38:24.779Z,63.90
2019-03-29T06:41:02.609Z,63.80
2019-03-29T06:43:26.717Z,63.80
2019-03-29T06:46:10.841Z,63.80
2019-03-29T06:48:40.802Z,63.80
2019-03-29T06:51:10.557Z,63.80
2019-03-29T06:53:40.338Z,63.90
2019-03-29T06:56:10.349Z,63.80
2019-03-29T06:58:40.285Z,63.80
2019-03-29T07:01:10.130Z,63.80
2019-03-29T07:03:40.027Z,63.90
2019-03-29T07:06:10.082Z,63.80
2019-03-29T07:08:39.830Z,63.90
2019-03-29T07:11:17.239Z,64.00
2019-03-29T07:13:41.386Z,63.90
2019-03-29T07:16:11.312Z,64.00
2019-03-29T07:18:41.023Z,64.00
2019-03-29T07:21:21.357Z,64.10
2019-03-29T07:23:46.859Z,64.10
2019-03-29T07:26:16.766Z,64.10
2019-03-29T07:28:46.771Z,64.10
2019-03-29T07:31:16.908Z,64.20
2019-03-29T07:33:46.786Z,64.20
2019-03-29T07:36:16.668Z,64.20
2019-03-29T07:38:46.719Z,64.20
2019-03-29T07:41:30.664Z,64.20
2019-03-29T07:43:48.299Z,64.20
2019-03-29T07:46:18.209Z,64.30
2019-03-29T07:48:48.117Z,64.30
2019-03-29T07:51:18.304Z,64.30
2019-03-29T07:53:48.126Z,64.30
2019-03-29T07:56:28.741Z,64.40
2019-03-29T07:58:58.733Z,64.40
2019-03-29T08:01:28.632Z,64.40
2019-03-29T08:03:58.464Z,64.40
2019-03-29T08:06:28.929Z,64.50
2019-03-29T08:09:00.938Z,64.50
2019-03-29T08:11:40.084Z,64.50
2019-03-29T08:14:02.909Z,64.50
2019-03-29T08:16:32.729Z,64.60
2019-03-29T08:19:05.012Z,64.50
2019-03-29T08:21:34.804Z,64.50
2019-03-29T08:24:04.817Z,64.70
2019-03-29T08:26:34.763Z,64.70
2019-03-29T08:29:04.562Z,64.70
2019-03-29T08:31:34.578Z,64.70
2019-03-29T08:34:04.374Z,64.70
2019-03-29T08:36:34.387Z,64.70
2019-03-29T08:39:05.497Z,64.70
2019-03-29T08:41:35.446Z,64.70
2019-03-29T08:44:06.985Z,64.70
2019-03-29T08:46:52.931Z,64.70
2019-03-29T08:49:22.774Z,64.70
2019-03-29T08:51:52.699Z,64.70
2019-03-29T08:54:22.641Z,64.90
2019-03-29T08:56:52.554Z,64.90
2019-03-29T08:59:22.370Z,64.90
2019-03-29T09:01:52.409Z,65.10
2019-03-29T09:04:22.260Z,65.00
2019-03-29T09:06:54.005Z,65.00
2019-03-29T09:09:23.707Z,65.10
2019-03-29T09:11:53.578Z,65.10
2019-03-29T09:14:23.605Z,65.00
2019-03-29T09:16:53.546Z,65.10
2019-03-29T09:19:28.918Z,65.20
2019-03-29T09:21:58.954Z,65.20
2019-03-29T09:24:28.788Z,65.20
2019-03-29T09:26:58.729Z,65.20
2019-03-29T09:29:34.822Z,65.20
2019-03-29T09:32:04.672Z,65.20
2019-03-29T09:34:34.474Z,65.30
2019-03-29T09:37:04.404Z,65.30
2019-03-29T09:39:34.936Z,65.40
2019-03-29T09:42:05.039Z,65.50
2019-03-29T09:44:35.028Z,65.50
2019-03-29T09:47:05.023Z,65.40
2019-03-29T09:49:34.746Z,65.40
2019-03-29T09:52:10.909Z,65.50
2019-03-29T09:54:41.161Z,65.60
2019-03-29T09:57:15.429Z,65.60
2019-03-29T09:59:52.954Z,65.50
2019-03-29T10:02:22.898Z,65.60
2019-03-29T10:04:52.538Z,65.80
2019-03-29T10:07:22.535Z,65.70
2019-03-29T10:09:53.146Z,65.70
2019-03-29T10:12:22.970Z,65.70
2019-03-29T10:14:52.883Z,65.80
2019-03-29T10:17:22.797Z,65.90
2019-03-29T10:19:52.510Z,65.80
2019-03-29T10:22:22.285Z,65.90
2019-03-29T10:24:52.122Z,65.90
2019-03-29T10:27:25.694Z,65.80
2019-03-29T10:29:55.603Z,66.00
2019-03-29T10:32:25.428Z,66.00
2019-03-29T10:34:55.180Z,66.00
2019-03-29T10:37:29.070Z,66.00
2019-03-29T10:39:58.816Z,66.00
2019-03-29T10:42:28.701Z,66.10
2019-03-29T10:45:00.524Z,66.10
2019-03-29T10:47:43.098Z,66.00
2019-03-29T10:50:02.086Z,66.10
2019-03-29T10:52:32.017Z,66.10
2019-03-29T10:55:02.001Z,66.10
2019-03-29T10:57:31.918Z,66.10
2019-03-29T11:00:01.718Z,66.10
2019-03-29T11:02:40.949Z,66.30
2019-03-29T11:05:10.867Z,66.30
2019-03-29T11:07:40.829Z,66.30
2019-03-29T11:10:14.287Z,66.30
2019-03-29T11:12:44.311Z,66.30
2019-03-29T11:15:14.243Z,66.50
2019-03-29T11:17:44.579Z,66.50
2019-03-29T11:20:14.327Z,66.50
2019-03-29T11:22:44.349Z,66.50
2019-03-29T11:25:14.280Z,66.60
2019-03-29T11:27:44.165Z,66.50
2019-03-29T11:30:14.121Z,66.50
2019-03-29T11:32:44.013Z,66.60
2019-03-29T11:35:13.927Z,66.70
2019-03-29T11:37:43.830Z,66.70
2019-03-29T11:40:13.736Z,66.70
2019-03-29T11:42:47.333Z,66.70
2019-03-29T11:45:17.313Z,66.70
2019-03-29T11:47:47.251Z,66.80
2019-03-29T11:50:17.541Z,66.70
2019-03-29T11:52:47.501Z,66.70
2019-03-29T11:55:23.019Z,66.70
2019-03-29T11:57:55.710Z,66.80
2019-03-29T12:00:38.546Z,66.80
2019-03-29T12:03:11.062Z,66.70
2019-03-29T12:05:40.872Z,67.00
2019-03-29T12:08:10.915Z,67.00
2019-03-29T12:10:40.797Z,66.90
2019-03-29T12:13:10.679Z,67.10
2019-03-29T12:15:40.662Z,66.90
2019-03-29T12:18:10.531Z,66.90
2019-03-29T12:20:40.430Z,67.10
2019-03-29T12:23:10.273Z,67.30
2019-03-29T12:25:47.243Z,67.20
2019-03-29T12:28:17.211Z,67.10
2019-03-29T12:30:46.989Z,67.20
2019-03-29T12:33:17.019Z,67.30
2019-03-29T12:35:46.882Z,67.30
2019-03-29T12:38:16.738Z,67.30
2019-03-29T12:40:47.074Z,67.20
2019-03-29T12:43:17.117Z,67.20
2019-03-29T12:45:46.949Z,67.10
2019-03-29T12:48:16.926Z,67.30
2019-03-29T12:50:46.930Z,67.30
2019-03-29T12:53:17.008Z,67.30
2019-03-29T12:55:46.907Z,67.40
2019-03-29T12:58:16.987Z,67.50
2019-03-29T13:00:47.065Z,67.50
2019-03-29T13:03:17.055Z,67.40
2019-03-29T13:05:47.109Z,67.40
2019-03-29T13:08:16.995Z,67.60
2019-03-29T13:10:46.939Z,67.50
2019-03-29T13:13:16.763Z,67.60
2019-03-29T13:15:47.166Z,67.80
2019-03-29T13:18:16.966Z,67.80
2019-03-29T13:20:47.042Z,67.60
2019-03-29T13:23:16.872Z,67.50
2019-03-29T13:25:47.117Z,67.60
2019-03-29T13:28:17.078Z,67.70
2019-03-29T13:30:47.112Z,67.80
2019-03-29T13:33:20.270Z,67.70
2019-03-29T13:35:48.379Z,67.80
2019-03-29T13:38:20.484Z,67.70
2019-03-29T13:40:49.807Z,67.80
2019-03-29T13:43:19.658Z,67.80
2019-03-29T13:45:49.703Z,67.90
2019-03-29T13:48:19.607Z,67.90
2019-03-29T13:50:49.486Z,67.80
2019-03-29T13:53:23.083Z,67.80
2019-03-29T13:55:52.985Z,67.90
2019-03-29T13:58:23.120Z,68.10
2019-03-29T14:00:53.066Z,68.10
2019-03-29T14:03:22.877Z,68.20
2019-03-29T14:05:53.014Z,68.10
2019-03-29T14:08:22.980Z,68.10
2019-03-29T14:10:52.943Z,68.10
2019-03-29T14:13:35.176Z,68.20
2019-03-29T14:16:05.164Z,68.20
2019-03-29T14:18:35.017Z,68.20
2019-03-29T14:21:04.789Z,68.50
2019-03-29T14:23:34.603Z,68.40
2019-03-29T14:26:05.407Z,68.40
2019-03-29T14:28:35.432Z,68.50
2019-03-29T14:31:05.318Z,68.40
2019-03-29T14:33:35.224Z,68.50
2019-03-29T14:36:05.148Z,68.50
2019-03-29T14:38:35.029Z,68.40
2019-03-29T14:41:05.022Z,68.60
2019-03-29T14:43:34.896Z,68.50
2019-03-29T14:46:04.718Z,68.50
2019-03-29T14:48:35.970Z,68.50
2019-03-29T14:51:05.782Z,68.60
2019-03-29T14:53:35.422Z,68.70
2019-03-29T14:56:05.350Z,68.60
2019-03-29T14:58:35.243Z,68.60
2019-03-29T15:01:05.106Z,68.60
2019-03-29T15:03:34.985Z,68.60
2019-03-29T15:06:05.815Z,68.70
2019-03-29T15:08:35.646Z,68.50
2019-03-29T15:11:21.555Z,68.60
2019-03-29T15:13:47.278Z,68.80
2019-03-29T15:16:17.138Z,68.70
2019-03-29T15:18:46.882Z,68.60
2019-03-29T15:21:17.175Z,68.80
2019-03-29T15:23:47.045Z,68.70
2019-03-29T15:26:16.982Z,68.80
2019-03-29T15:28:47.274Z,68.80
2019-03-29T15:31:17.218Z,68.80
2019-03-29T15:33:47.097Z,68.70
2019-03-29T15:36:17.050Z,68.80
2019-03-29T15:38:46.942Z,68.80
2019-03-29T15:41:16.850Z,68.80
2019-03-29T15:43:46.723Z,68.80
2019-03-29T15:46:17.311Z,68.80
2019-03-29T15:48:47.126Z,68.80
2019-03-29T15:51:17.107Z,68.80
2019-03-29T15:53:47.193Z,68.80
2019-03-29T15:56:17.205Z,69.00
2019-03-29T15:58:47.094Z,68.80
2019-03-29T16:01:16.955Z,68.80
2019-03-29T16:03:46.759Z,69.00
2019-03-29T16:06:16.506Z,69.00
2019-03-29T16:08:46.668Z,68.90
2019-03-29T16:11:17.397Z,68.90
2019-03-29T16:13:53.180Z,68.90
2019-03-29T16:16:23.095Z,68.90
2019-03-29T16:18:53.133Z,68.90
2019-03-29T16:21:22.996Z,68.90
2019-03-29T16:23:53.284Z,68.90
2019-03-29T16:26:23.302Z,68.90
2019-03-29T16:28:53.099Z,68.90
2019-03-29T16:31:24.033Z,68.90
2019-03-29T16:33:53.831Z,68.90
2019-03-29T16:36:23.775Z,68.90
2019-03-29T16:38:53.585Z,69.00
2019-03-29T16:41:35.275Z,69.00
2019-03-29T16:44:05.241Z,69.00
2019-03-29T16:46:35.138Z,69.00
2019-03-29T16:49:04.975Z,69.10
2019-03-29T16:51:34.998Z,69.10
2019-03-29T16:54:11.246Z,69.10
2019-03-29T16:56:41.095Z,69.10
2019-03-29T16:59:10.940Z,69.30
2019-03-29T17:01:41.026Z,69.20
2019-03-29T17:04:10.831Z,69.20
2019-03-29T17:06:40.806Z,69.20
2019-03-29T17:09:10.764Z,69.30
2019-03-29T17:11:41.251Z,69.30
2019-03-29T17:14:12.333Z,69.30
2019-03-29T17:16:42.231Z,69.30
2019-03-29T17:19:17.497Z,69.20
2019-03-29T17:21:53.159Z,69.40
2019-03-29T17:24:23.090Z,69.30
2019-03-29T17:26:52.945Z,69.40
2019-03-29T17:29:23.067Z,69.40
2019-03-29T17:32:05.406Z,69.40
2019-03-29T17:34:35.434Z,69.40
2019-03-29T17:37:05.354Z,69.50
2019-03-29T17:39:35.306Z,69.50
2019-03-29T17:42:05.156Z,69.30
2019-03-29T17:44:35.947Z,69.40
2019-03-29T17:47:05.750Z,69.40
2019-03-29T17:49:35.680Z,69.50
2019-03-29T17:52:06.865Z,69.50
2019-03-29T17:54:36.627Z,69.50
2019-03-29T17:57:11.492Z,69.40
2019-03-29T17:59:53.365Z,69.50
2019-03-29T18:02:30.031Z,69.60
2019-03-29T18:04:59.818Z,69.50
2019-03-29T18:07:29.789Z,69.50
2019-03-29T18:09:59.689Z,69.50
2019-03-29T18:12:29.476Z,69.50
2019-03-29T18:14:59.610Z,69.50
2019-03-29T18:17:35.363Z,69.50
2019-03-29T18:20:05.542Z,69.50
2019-03-29T18:22:41.453Z,69.50
2019-03-29T18:25:11.906Z,69.70
2019-03-29T18:27:41.987Z,69.60
2019-03-29T18:30:34.932Z,69.50
2019-03-29T18:33:05.008Z,69.60
2019-03-29T18:35:34.985Z,69.70
2019-03-29T18:38:04.914Z,69.60
2019-03-29T18:40:41.299Z,69.60
2019-03-29T18:43:11.165Z,69.50
2019-03-29T18:45:41.722Z,69.60
2019-03-29T18:48:29.373Z,69.70
2019-03-29T18:50:59.435Z,69.60
2019-03-29T18:53:41.454Z,69.60
2019-03-29T18:56:11.318Z,69.60
2019-03-29T18:58:41.396Z,69.60
2019-03-29T19:01:11.287Z,69.70
2019-03-29T19:03:41.222Z,69.50
2019-03-29T19:06:11.136Z,69.60
2019-03-29T19:08:41.562Z,69.60
2019-03-29T19:11:11.434Z,69.50
2019-03-29T19:13:47.515Z,69.60
2019-03-29T19:16:17.662Z,69.60
2019-03-29T19:18:47.599Z,69.60
2019-03-29T19:21:17.614Z,69.50
2019-03-29T19:23:47.456Z,69.50
2019-03-29T19:26:17.311Z,69.60
2019-03-29T19:28:47.271Z,69.50
2019-03-29T19:31:17.209Z,69.50
2019-03-29T19:33:47.142Z,69.50
2019-03-29T19:36:17.240Z,69.50
2019-03-29T19:38:47.063Z,69.50
2019-03-29T19:41:23.478Z,69.50
2019-03-29T19:43:56.248Z,69.50
2019-03-29T19:46:28.802Z,69.50
2019-03-29T19:48:58.583Z,69.50
2019-03-29T19:51:28.539Z,69.50
2019-03-29T19:54:07.291Z,69.50
2019-03-29T19:56:30.175Z,69.50
2019-03-29T19:58:59.954Z,69.50
2019-03-29T20:01:30.398Z,69.50
2019-03-29T20:04:00.706Z,69.50
2019-03-29T20:06:30.516Z,69.40
2019-03-29T20:09:07.325Z,69.40
2019-03-29T20:11:41.588Z,69.50
2019-03-29T20:14:11.540Z,69.40
2019-03-29T20:16:42.264Z,69.50
2019-03-29T20:19:12.169Z,69.40
2019-03-29T20:21:47.561Z,69.40
2019-03-29T20:24:17.626Z,69.40
2019-03-29T20:26:53.555Z,69.40
2019-03-29T20:29:23.542Z,69.40
2019-03-29T20:31:53.463Z,69.40
2019-03-29T20:34:23.288Z,69.40
2019-03-29T20:36:53.899Z,69.40
2019-03-29T20:39:23.774Z,69.40
2019-03-29T20:42:11.352Z,69.40
2019-03-29T20:44:41.456Z,69.40
2019-03-29T20:47:11.394Z,69.40
2019-03-29T20:49:41.185Z,69.40
2019-03-29T20:52:11.233Z,69.40
2019-03-29T20:54:40.998Z,69.40
2019-03-29T20:57:10.880Z,69.30
2019-03-29T20:59:40.750Z,69.30
2019-03-29T21:02:10.500Z,69.30
2019-03-29T21:04:40.325Z,69.30
2019-03-29T21:07:10.147Z,69.30
2019-03-29T21:09:39.904Z,69.30
2019-03-29T21:12:09.967Z,69.30
2019-03-29T21:14:39.874Z,69.30
2019-03-29T21:17:09.900Z,69.20
2019-03-29T21:19:41.495Z,69.20
2019-03-29T21:22:11.389Z,69.20
2019-03-29T21:24:41.386Z,69.30
2019-03-29T21:27:11.524Z,69.20
2019-03-29T21:29:41.307Z,69.20
2019-03-29T21:32:11.309Z,69.20
2019-03-29T21:34:41.475Z,69.20
2019-03-29T21:37:11.327Z,69.20
2019-03-29T21:39:41.236Z,69.20
2019-03-29T21:42:11.243Z,69.20
2019-03-29T21:44:41.086Z,69.20
2019-03-29T21:47:10.944Z,69.10
2019-03-29T21:49:40.836Z,69.10
2019-03-29T21:52:11.402Z,69.10
2019-03-29T21:54:41.278Z,69.10
2019-03-29T21:57:11.550Z,69.10
2019-03-29T21:59:53.485Z,69.10
2019-03-29T22:02:23.349Z,69.00
2019-03-29T22:04:53.282Z,69.00
2019-03-29T22:07:23.118Z,69.00
2019-03-29T22:09:59.529Z,69.00
2019-03-29T22:12:46.325Z,69.00
2019-03-29T22:15:17.421Z,69.00
2019-03-29T22:17:47.450Z,69.00
2019-03-29T22:20:17.441Z,68.90
2019-03-29T22:22:47.559Z,68.90
2019-03-29T22:25:28.379Z,68.90
2019-03-29T22:27:59.374Z,68.90
2019-03-29T22:30:29.349Z,68.90
2019-03-29T22:32:59.052Z,68.80
2019-03-29T22:35:28.915Z,68.90
2019-03-29T22:37:58.803Z,68.80
2019-03-29T22:40:28.599Z,68.80
2019-03-29T22:42:58.427Z,68.80
2019-03-29T22:45:30.469Z,68.80
2019-03-29T22:48:00.405Z,68.80
2019-03-29T22:50:35.490Z,68.80
2019-03-29T22:53:05.382Z,68.70
2019-03-29T22:55:35.177Z,68.80
2019-03-29T22:58:05.106Z,68.80
2019-03-29T23:00:40.235Z,68.80
2019-03-29T23:03:10.269Z,68.70
2019-03-29T23:05:40.220Z,68.70
2019-03-29T23:08:09.897Z,68.60
2019-03-29T23:10:41.526Z,68.70
2019-03-29T23:13:11.622Z,68.60
2019-03-29T23:15:41.500Z,68.70
2019-03-29T23:18:11.402Z,68.60
2019-03-29T23:20:41.415Z,68.50
2019-03-29T23:23:11.454Z,68.60
2019-03-29T23:25:41.355Z,68.60
2019-03-29T23:28:11.257Z,68.50
2019-03-29T23:30:47.591Z,68.50
2019-03-29T23:33:35.530Z,68.50
2019-03-29T23:36:05.429Z,68.50
2019-03-29T23:38:35.269Z,68.40
2019-03-29T23:41:05.267Z,68.40
2019-03-29T23:43:35.326Z,68.40
2019-03-29T23:46:05.462Z,68.40
2019-03-29T23:48:35.412Z,68.40
2019-03-29T23:51:05.543Z,68.30
2019-03-29T23:53:35.409Z,68.30
2019-03-29T23:56:05.348Z,68.30
2019-03-29T23:58:35.222Z,68.30
